Time;durP1;ratioP1;P1;durP2;ratioP2;P2;SDS_P1;SDS_P2;PMS_P1;PMS_P2;Temp;Humidity;BMP_temperature;BMP_pressure;BME280_temperature;BME280_humidity;BME280_pressure;Samples;Min_cycle;Max_cycle;Signal;HPM_P1;HPM_P2
2023/07/10 00:00:55;;;;;;;10.98;9.63;;;;;;;18.45;100.00;101724.75;5013163;28;20033;-84
2023/07/10 00:03:23;;;;;;;10.80;9.35;;;;;;;18.42;100.00;101720.59;5029034;28;20078;-84
2023/07/10 00:05:49;;;;;;;9.85;8.85;;;;;;;18.43;100.00;101725.00;5025149;28;20042;-84
2023/07/10 00:08:14;;;;;;;11.02;9.60;;;;;;;18.38;100.00;101726.72;5030103;28;20041;-84
2023/07/10 00:10:40;;;;;;;10.02;9.02;;;;;;;18.43;100.00;101735.91;5026780;28;20021;-84
2023/07/10 00:13:05;;;;;;;10.75;9.70;;;;;;;18.46;100.00;101732.69;5030198;28;20025;-84
2023/07/10 00:15:30;;;;;;;11.07;9.98;;;;;;;18.46;100.00;101727.25;5028727;28;20030;-84
2023/07/10 00:17:56;;;;;;;12.85;10.27;;;;;;;18.46;100.00;101735.44;5025789;28;20029;-84
2023/07/10 00:20:27;;;;;;;10.73;9.73;;;;;;;18.47;100.00;101725.38;5025338;28;20093;-84
2023/07/10 00:22:52;;;;;;;12.27;10.23;;;;;;;18.51;100.00;101728.47;5027765;28;20041;-84
2023/07/10 00:25:18;;;;;;;11.98;10.75;;;;;;;18.53;100.00;101737.25;5025303;28;20389;-84
2023/07/10 00:27:44;;;;;;;13.75;10.82;;;;;;;18.57;100.00;101742.00;5031653;28;20037;-84
2023/07/10 00:30:28;;;;;;;10.85;9.85;;;;;;;18.63;100.00;101738.38;5032155;28;20029;-84
2023/07/10 00:32:54;;;;;;;11.18;10.05;;;;;;;18.66;99.68;101738.97;5034582;28;20036;-84
2023/07/10 00:35:23;;;;;;;13.07;10.75;;;;;;;18.63;99.65;101740.25;5036658;28;20037;-84
2023/07/10 00:38:04;;;;;;;11.45;10.32;;;;;;;18.66;99.85;101747.97;5041430;28;20030;-83
2023/07/10 00:40:32;;;;;;;12.95;10.48;;;;;;;18.70;99.72;101749.19;5070877;28;20030;-81
2023/07/10 00:43:04;;;;;;;12.88;11.57;;;;;;;18.70;99.56;101751.09;5045637;28;20034;-81
2023/07/10 00:45:30;;;;;;;14.15;11.07;;;;;;;18.69;99.46;101741.25;5033560;28;20029;-81
2023/07/10 00:48:16;;;;;;;12.27;11.02;;;;;;;18.69;99.15;101746.72;5013769;28;20083;-81
2023/07/10 00:50:45;;;;;;;13.00;11.15;;;;;;;18.66;99.42;101747.16;5014223;28;20052;-82
2023/07/10 00:53:21;;;;;;;12.75;11.55;;;;;;;18.66;99.45;101744.44;5012238;28;20048;-81
2023/07/10 00:55:46;;;;;;;13.25;11.48;;;;;;;18.64;99.47;101748.22;4991785;28;20112;-81
2023/07/10 00:58:45;;;;;;;13.07;11.77;;;;;;;18.67;99.47;101757.00;5011228;28;20032;-81
2023/07/10 01:01:22;;;;;;;13.07;11.45;;;;;;;18.65;100.00;101751.78;5018078;28;20033;-82
2023/07/10 01:03:52;;;;;;;13.63;12.15;;;;;;;18.66;100.00;101749.91;5029530;28;20061;-80
2023/07/10 01:06:22;;;;;;;14.05;12.07;;;;;;;18.66;99.88;101747.97;5026661;28;20045;-80
2023/07/10 01:08:59;;;;;;;14.90;12.60;;;;;;;18.64;99.92;101750.09;5023986;28;20037;-80
2023/07/10 01:11:24;;;;;;;14.40;12.60;;;;;;;18.68;100.00;101747.78;5007108;28;20049;-80
2023/07/10 01:13:50;;;;;;;13.57;12.15;;;;;;;18.73;100.00;101739.72;5023666;28;20044;-80
2023/07/10 01:16:17;;;;;;;14.32;11.60;;;;;;;18.73;99.35;101745.16;4993087;28;20086;-80
2023/07/10 01:18:42;;;;;;;14.93;12.80;;;;;;;18.77;99.83;101752.69;5011018;28;20042;-80
2023/07/10 01:21:10;;;;;;;14.32;12.68;;;;;;;18.83;99.39;101755.53;4992599;27;20529;-80
2023/07/10 01:23:36;;;;;;;13.82;12.18;;;;;;;18.81;98.68;101761.22;5028409;28;20026;-80
2023/07/10 01:26:03;;;;;;;13.23;11.25;;;;;;;18.85;98.57;101761.59;5009277;28;20032;-80
2023/07/10 01:28:29;;;;;;;14.23;12.60;;;;;;;18.89;98.45;101758.16;4993404;28;20025;-80
2023/07/10 01:30:58;;;;;;;15.13;12.73;;;;;;;18.84;97.73;101762.66;5027194;28;20037;-80
2023/07/10 01:33:26;;;;;;;14.02;12.27;;;;;;;18.87;97.79;101765.78;5008056;28;20443;-80
2023/07/10 01:35:54;;;;;;;14.43;12.30;;;;;;;18.92;97.42;101754.97;4991320;28;20037;-80
2023/07/10 01:38:19;;;;;;;14.68;11.52;;;;;;;18.89;96.63;101755.44;4991928;28;20641;-80
2023/07/10 01:40:50;;;;;;;13.80;12.18;;;;;;;18.82;96.35;101760.16;4994078;28;20044;-80
2023/07/10 01:43:15;;;;;;;14.80;11.82;;;;;;;18.79;96.22;101750.56;4990352;28;20041;-80
2023/07/10 01:45:45;;;;;;;13.52;12.13;;;;;;;18.79;96.38;101739.66;5023341;28;20404;-80
2023/07/10 01:48:11;;;;;;;12.80;10.98;;;;;;;18.81;96.56;101747.59;5028080;28;20557;-80
2023/07/10 01:50:36;;;;;;;15.13;12.95;;;;;;;18.72;96.25;101743.50;5009152;28;20037;-80
2023/07/10 01:53:03;;;;;;;13.98;12.15;;;;;;;18.78;96.66;101740.72;5028288;28;20034;-80
2023/07/10 01:55:29;;;;;;;14.77;12.35;;;;;;;18.77;97.03;101730.00;5026561;28;20389;-80
2023/07/10 01:57:54;;;;;;;13.88;12.20;;;;;;;18.75;96.59;101722.06;5007169;28;20034;-80
2023/07/10 02:00:19;;;;;;;14.15;11.80;;;;;;;18.77;95.83;101749.09;5025107;28;20033;-80
2023/07/10 02:02:45;;;;;;;16.10;13.25;;;;;;;18.68;96.71;101759.50;5027661;28;20481;-80
2023/07/10 02:05:13;;;;;;;15.98;13.50;;;;;;;18.67;97.23;101763.28;5026877;28;20141;-80
2023/07/10 02:07:39;;;;;;;15.70;13.35;;;;;;;18.60;97.50;101757.09;5027513;28;20024;-81
2023/07/10 02:10:06;;;;;;;16.60;13.25;;;;;;;18.61;98.23;101767.78;5023178;28;20025;-80
2023/07/10 02:12:31;;;;;;;16.13;13.55;;;;;;;18.62;98.28;101768.63;5028729;28;20089;-80
2023/07/10 02:14:57;;;;;;;18.60;12.77;;;;;;;18.64;98.53;101761.88;5025409;28;20030;-80
2023/07/10 02:17:22;;;;;;;15.75;12.85;;;;;;;18.67;98.24;101762.47;5027819;28;20382;-83
2023/07/10 02:19:47;;;;;;;14.48;12.40;;;;;;;18.59;98.07;101764.44;5028133;28;20075;-85
2023/07/10 02:22:13;;;;;;;16.38;12.93;;;;;;;18.62;98.78;101769.44;5027898;28;20026;-86
2023/07/10 02:24:41;;;;;;;17.35;14.00;;;;;;;18.61;99.22;101770.50;5019514;28;20026;-85
2023/07/10 02:27:06;;;;;;;16.55;13.57;;;;;;;18.63;98.80;101767.53;5027639;28;20025;-84
2023/07/10 02:29:34;;;;;;;17.38;12.98;;;;;;;18.65;98.23;101759.94;5028253;28;20381;-86
2023/07/10 02:32:01;;;;;;;18.10;13.50;;;;;;;18.63;98.38;101762.91;5022047;28;20082;-87
2023/07/10 02:34:27;;;;;;;14.80;12.77;;;;;;;18.61;98.22;101767.78;5023858;28;20030;-87
2023/07/10 02:36:53;;;;;;;15.20;12.50;;;;;;;18.62;98.33;101774.06;5021481;28;20048;-85
2023/07/10 02:39:19;;;;;;;17.58;14.23;;;;;;;18.59;98.26;101786.25;5026719;28;20022;-85
2023/07/10 02:41:44;;;;;;;15.90;13.45;;;;;;;18.56;98.89;101789.44;5028277;28;20533;-87
2023/07/10 02:44:09;;;;;;;17.10;13.30;;;;;;;18.48;98.48;101796.03;5026823;28;20036;-86
2023/07/10 02:46:35;;;;;;;14.30;12.73;;;;;;;18.50;98.74;101798.53;5034187;28;20391;-87
2023/07/10 02:49:00;;;;;;;15.57;12.50;;;;;;;18.48;98.03;101798.75;5023599;28;20025;-88
2023/07/10 02:51:26;;;;;;;13.13;11.73;;;;;;;18.46;97.37;101794.59;5028688;28;20033;-86
2023/07/10 02:53:51;;;;;;;15.65;12.88;;;;;;;18.46;97.80;101789.13;5024996;28;20457;-86
2023/07/10 02:56:17;;;;;;;17.73;12.73;;;;;;;18.45;97.53;101799.19;5028096;28;20074;-86
2023/07/10 02:58:43;;;;;;;14.43;11.95;;;;;;;18.39;97.67;101791.94;5024547;28;20038;-86
2023/07/10 03:01:10;;;;;;;17.15;12.82;;;;;;;18.39;97.69;101799.28;5029514;28;20499;-85
2023/07/10 03:03:38;;;;;;;14.27;12.40;;;;;;;18.35;97.80;101798.91;5030126;28;20142;-86
2023/07/10 03:06:06;;;;;;;16.48;12.75;;;;;;;18.37;98.05;101794.06;5029175;28;20228;-86
2023/07/10 03:08:31;;;;;;;15.73;12.70;;;;;;;18.36;97.54;101805.16;5022384;28;20483;-86
2023/07/10 03:11:07;;;;;;;15.95;12.23;;;;;;;18.35;96.77;101806.25;5035212;28;20037;-86
2023/07/10 03:13:33;;;;;;;14.00;12.50;;;;;;;18.37;97.22;101804.09;5031316;28;20039;-86
2023/07/10 03:16:08;;;;;;;15.73;11.98;;;;;;;18.35;97.25;101808.97;5009426;28;20108;-86
2023/07/10 03:18:36;;;;;;;;;;;;;;;18.27;96.80;101808.22;5023699;28;20026;-86
2023/07/10 03:21:02;;;;;;;16.00;12.05;;;;;;;18.28;97.23;101807.16;5023981;28;19917;-86
2023/07/10 03:23:27;;;;;;;12.63;10.98;;;;;;;18.32;97.32;101813.81;5024440;28;20060;-86
2023/07/10 03:25:53;;;;;;;16.33;12.25;;;;;;;18.38;97.64;101820.25;5030712;28;20381;-86
2023/07/10 03:28:18;;;;;;;11.65;10.18;;;;;;;18.44;97.47;101813.06;5029502;28;20037;-86
2023/07/10 03:30:44;;;;;;;13.75;11.73;;;;;;;18.41;96.81;101808.91;5024258;28;20033;-86
2023/07/10 03:33:12;;;;;;;15.43;11.70;;;;;;;18.42;96.77;101810.56;5029051;28;20030;-86
2023/07/10 03:35:37;;;;;;;13.85;11.00;;;;;;;18.43;96.69;101806.78;5022617;28;20074;-86
2023/07/10 03:38:03;;;;;;;12.77;10.63;;;;;;;18.43;96.25;101803.22;5030088;28;20041;-86
2023/07/10 03:40:28;;;;;;;12.45;11.10;;;;;;;18.42;95.17;101815.19;5030774;28;20036;-87
2023/07/10 03:42:54;;;;;;;12.43;9.88;;;;;;;18.44;95.20;101821.25;5022766;28;20370;-86
2023/07/10 03:45:22;;;;;;;12.88;10.52;;;;;;;18.40;94.34;101820.03;5027292;28;20431;-86
2023/07/10 03:47:47;;;;;;;13.10;10.85;;;;;;;18.40;94.22;101825.47;5030417;28;20473;-87
2023/07/10 03:50:12;;;;;;;12.52;10.60;;;;;;;18.41;94.11;101821.69;5030162;28;20040;-87
2023/07/10 03:52:38;;;;;;;14.50;10.93;;;;;;;18.40;94.63;101828.19;5031646;28;20030;-87
2023/07/10 03:55:04;;;;;;;11.88;10.20;;;;;;;18.44;94.51;101826.69;5023684;28;20026;-87
2023/07/10 03:57:31;;;;;;;13.45;10.50;;;;;;;18.46;94.41;101836.31;5030544;28;20026;-86
2023/07/10 03:59:57;;;;;;;13.20;10.65;;;;;;;18.44;93.68;101840.31;5028331;28;20492;-86
2023/07/10 04:02:22;;;;;;;13.18;9.90;;;;;;;18.43;93.79;101844.97;5029937;28;20034;-86
2023/07/10 04:04:48;;;;;;;12.02;9.60;;;;;;;18.38;93.30;101852.97;5026834;28;20033;-89
2023/07/10 04:07:14;;;;;;;10.50;9.15;;;;;;;18.39;93.12;101849.19;5030486;28;20094;-88
2023/07/10 04:09:42;;;;;;;13.02;9.45;;;;;;;18.31;92.87;101841.28;5033550;28;20089;-78
2023/07/10 04:12:08;;;;;;;12.90;9.45;;;;;;;18.35;93.01;101852.59;5030862;28;20104;-84
2023/07/10 04:14:36;;;;;;;10.18;8.32;;;;;;;18.37;93.00;101843.13;5028608;28;20041;-83
2023/07/10 04:17:02;;;;;;;12.45;9.98;;;;;;;18.38;92.82;101854.84;5011033;28;20098;-82
2023/07/10 04:19:27;;;;;;;13.02;9.40;;;;;;;18.40;93.06;101855.47;5032751;28;20029;-86
2023/07/10 04:21:52;;;;;;;12.55;9.20;;;;;;;18.34;93.26;101859.94;5052410;28;20089;-82
2023/07/10 04:24:18;;;;;;;11.82;10.52;;;;;;;18.29;93.58;101857.03;5046761;28;20350;-82
2023/07/10 04:26:43;;;;;;;12.10;9.52;;;;;;;18.29;94.29;101851.56;5031940;28;20445;-82
2023/07/10 04:29:17;;;;;;;11.57;9.73;;;;;;;18.24;94.48;101851.44;5030531;28;20132;-82
2023/07/10 04:31:44;;;;;;;12.77;10.50;;;;;;;18.14;95.52;101843.78;5022316;28;20420;-82
2023/07/10 04:34:10;;;;;;;13.38;10.90;;;;;;;18.17;96.01;101854.22;5030467;28;20021;-82
2023/07/10 04:36:35;;;;;;;14.93;11.52;;;;;;;18.20;96.95;101840.13;5029925;28;20045;-82
2023/07/10 04:39:02;;;;;;;13.38;11.93;;;;;;;18.26;96.95;101857.50;5029051;28;20029;-83
2023/07/10 04:41:27;;;;;;;12.57;11.15;;;;;;;18.25;95.99;101853.09;5024342;28;20474;-83
2023/07/10 04:43:53;;;;;;;13.27;10.98;;;;;;;18.23;95.94;101861.50;5028580;28;20044;-83
2023/07/10 04:46:18;;;;;;;11.68;9.55;;;;;;;18.28;95.50;101858.94;5029308;28;20030;-83
2023/07/10 04:48:44;;;;;;;12.55;9.77;;;;;;;18.37;95.14;101867.66;5027557;28;20483;-83
2023/07/10 04:51:10;;;;;;;15.35;9.35;;;;;;;18.43;94.81;101866.78;5024659;28;20038;-83
2023/07/10 04:53:35;;;;;;;12.68;9.25;;;;;;;18.42;93.48;101870.56;5027913;28;20025;-83
2023/07/10 04:56:02;;;;;;;12.52;8.85;;;;;;;18.35;92.23;101880.69;5029424;28;20033;-83
2023/07/10 04:58:28;;;;;;;16.58;9.07;;;;;;;18.30;92.53;101877.78;5027828;28;21010;-82
2023/07/10 05:00:55;;;;;;;12.60;8.25;;;;;;;18.28;92.04;101863.53;5028938;28;20025;-83
2023/07/10 05:03:20;;;;;;;12.50;9.05;;;;;;;18.29;91.86;101863.34;5027847;28;20052;-83
2023/07/10 05:05:52;;;;;;;9.80;7.22;;;;;;;18.37;91.54;101859.47;5028648;28;20373;-83
2023/07/10 05:08:17;;;;;;;10.13;7.07;;;;;;;18.36;88.77;101870.59;5030169;28;20057;-84
2023/07/10 05:10:43;;;;;;;8.52;6.70;;;;;;;18.38;88.94;101863.88;5030310;28;20033;-84
2023/07/10 05:13:08;;;;;;;7.53;5.10;;;;;;;18.41;87.35;101868.03;5028410;28;20026;-84
2023/07/10 05:15:34;;;;;;;6.85;5.40;;;;;;;18.48;86.17;101868.81;5029304;28;20090;-83
2023/07/10 05:17:59;;;;;;;6.88;4.85;;;;;;;18.56;84.56;101868.50;5031157;28;20112;-84
2023/07/10 05:20:25;;;;;;;5.18;4.65;;;;;;;18.64;83.14;101860.03;5029396;28;20021;-84
2023/07/10 05:22:50;;;;;;;5.47;4.38;;;;;;;18.85;82.78;101868.84;5029641;28;20037;-83
2023/07/10 05:25:19;;;;;;;4.65;4.25;;;;;;;18.99;82.54;101869.53;5046807;28;20022;-84
2023/07/10 05:27:45;;;;;;;6.55;4.47;;;;;;;19.07;79.40;101879.28;5023108;28;20030;-84
2023/07/10 05:30:11;;;;;;;5.28;4.10;;;;;;;19.07;79.41;101882.03;5028286;28;20081;-84
2023/07/10 05:32:36;;;;;;;5.88;4.30;;;;;;;19.19;80.62;101890.28;5034541;28;20085;-84
2023/07/10 05:35:01;;;;;;;5.32;3.92;;;;;;;19.21;79.33;101885.44;5029710;28;20036;-84
2023/07/10 05:37:27;;;;;;;6.25;3.70;;;;;;;19.08;78.11;101881.81;5031697;28;20040;-84
2023/07/10 05:39:52;;;;;;;5.75;3.88;;;;;;;18.92;78.23;101890.59;5031712;28;20050;-84
2023/07/10 05:42:18;;;;;;;5.95;3.60;;;;;;;18.87;78.24;101893.16;5028625;28;20064;-84
2023/07/10 05:44:43;;;;;;;6.32;3.85;;;;;;;18.88;78.99;101890.22;5028583;28;20033;-84
2023/07/10 05:47:09;;;;;;;7.40;3.70;;;;;;;18.92;78.19;101885.94;5029800;28;20036;-83
2023/07/10 05:49:34;;;;;;;5.38;3.75;;;;;;;19.18;77.44;101888.59;5029848;28;20026;-84
2023/07/10 05:51:59;;;;;;;5.55;3.53;;;;;;;19.30;78.10;101896.88;5029586;28;20458;-83
2023/07/10 05:54:25;;;;;;;6.50;3.80;;;;;;;19.14;77.63;101895.63;5031091;28;20043;-84
2023/07/10 05:56:50;;;;;;;6.30;3.45;;;;;;;19.19;78.39;101899.31;5029134;28;20037;-84
2023/07/10 05:59:22;;;;;;;4.30;3.60;;;;;;;19.22;79.22;101904.31;5029162;28;20025;-84
2023/07/10 06:01:47;;;;;;;4.63;3.70;;;;;;;19.30;77.43;101918.72;5029213;28;20044;-84
2023/07/10 06:04:12;;;;;;;5.47;3.55;;;;;;;19.04;75.43;101905.16;5029291;28;20029;-84
2023/07/10 06:06:39;;;;;;;5.07;3.00;;;;;;;19.21;77.11;101905.38;5029079;28;20382;-84
2023/07/10 06:09:04;;;;;;;5.30;3.08;;;;;;;19.32;76.81;101911.13;5030177;28;20030;-84
2023/07/10 06:11:30;;;;;;;4.78;2.85;;;;;;;19.32;74.95;101908.41;5029437;28;20045;-84
2023/07/10 06:13:55;;;;;;;6.57;2.60;;;;;;;19.44;72.31;101914.72;5028295;28;20083;-84
2023/07/10 06:16:20;;;;;;;5.30;2.80;;;;;;;19.54;74.37;101917.75;5028270;28;20409;-84
2023/07/10 06:18:46;;;;;;;6.90;2.78;;;;;;;19.80;72.10;101912.97;5029297;28;20034;-84
2023/07/10 06:21:11;;;;;;;6.38;2.50;;;;;;;19.66;70.52;101911.50;5028146;28;20025;-84
2023/07/10 06:23:37;;;;;;;4.22;2.58;;;;;;;19.91;71.89;101924.22;5028402;28;20022;-84
2023/07/10 06:26:02;;;;;;;5.88;2.75;;;;;;;20.14;71.30;101924.25;5028881;28;20072;-84
2023/07/10 06:28:32;;;;;;;6.75;3.05;;;;;;;20.63;71.65;101915.00;5027605;28;20029;-84
2023/07/10 06:31:03;;;;;;;5.53;2.92;;;;;;;21.04;67.78;101921.41;5028204;28;20137;-84
2023/07/10 06:33:29;;;;;;;3.90;2.80;;;;;;;21.13;67.44;101913.63;5029127;28;20166;-84
2023/07/10 06:35:55;;;;;;;6.88;3.20;;;;;;;21.26;66.90;101918.00;5028193;28;20511;-85
2023/07/10 06:38:20;;;;;;;6.53;3.10;;;;;;;21.91;65.44;101921.44;5028764;28;20017;-84
2023/07/10 06:40:48;;;;;;;6.78;3.25;;;;;;;22.77;61.87;101924.16;5029021;28;20418;-84
2023/07/10 06:43:13;;;;;;;7.43;3.30;;;;;;;23.70;59.78;101920.59;5027255;28;20396;-84
2023/07/10 06:45:39;;;;;;;7.45;3.08;;;;;;;24.87;56.48;101921.00;5028228;28;20025;-84
2023/07/10 06:48:05;;;;;;;7.65;3.38;;;;;;;26.27;51.19;101924.06;5030137;28;20086;-85
2023/07/10 06:50:31;;;;;;;4.93;2.88;;;;;;;27.59;47.25;101925.81;5029118;28;20072;-83
2023/07/10 06:52:59;;;;;;;4.45;2.88;;;;;;;26.78;49.42;101928.63;5029650;28;20041;-83
2023/07/10 06:55:24;;;;;;;6.90;3.08;;;;;;;26.99;50.97;101923.91;5025414;28;20053;-84
2023/07/10 06:57:50;;;;;;;7.07;3.13;;;;;;;27.75;50.13;101921.00;5031536;28;20358;-84
2023/07/10 07:00:16;;;;;;;6.80;3.00;;;;;;;27.59;45.94;101919.47;5032271;28;20033;-84
2023/07/10 07:02:42;;;;;;;5.07;2.85;;;;;;;27.96;47.24;101918.91;5033694;28;20066;-85
2023/07/10 07:05:08;;;;;;;5.05;2.65;;;;;;;27.78;45.22;101916.84;5032848;28;20033;-85
2023/07/10 07:07:34;;;;;;;4.88;2.50;;;;;;;27.87;44.18;101917.88;5024234;28;20033;-85
2023/07/10 07:10:00;;;;;;;4.63;2.30;;;;;;;27.31;45.81;101908.81;5033580;28;20477;-84
2023/07/10 07:12:25;;;;;;;5.72;2.42;;;;;;;26.42;47.31;101917.69;5030568;28;20037;-84
2023/07/10 07:14:51;;;;;;;5.60;2.50;;;;;;;27.32;45.63;101920.69;5032187;28;20029;-85
2023/07/10 07:17:22;;;;;;;5.38;2.15;;;;;;;27.11;45.51;101925.50;5034016;28;20475;-85
2023/07/10 07:19:48;;;;;;;5.55;2.70;;;;;;;27.04;46.80;101928.59;5026300;28;20078;-85
2023/07/10 07:22:13;;;;;;;6.32;2.63;;;;;;;27.43;43.74;101927.00;5034510;28;20045;-84
2023/07/10 07:24:39;;;;;;;5.47;2.22;;;;;;;26.91;44.52;101921.72;5034755;28;20060;-84
2023/07/10 07:27:05;;;;;;;4.05;2.03;;;;;;;27.88;43.63;101935.31;5031517;28;20033;-84
2023/07/10 07:29:31;;;;;;;3.35;1.85;;;;;;;29.15;41.07;101937.06;5033237;28;20030;-84
2023/07/10 07:31:56;;;;;;;3.65;2.10;;;;;;;29.18;40.64;101930.94;5035845;28;20021;-84
2023/07/10 07:34:21;;;;;;;4.90;2.40;;;;;;;28.26;40.17;101933.59;5047139;28;20140;-84
2023/07/10 07:36:50;;;;;;;5.82;2.20;;;;;;;28.48;44.88;101937.84;5047602;28;20030;-83
2023/07/10 07:39:16;;;;;;;5.22;2.28;;;;;;;29.26;41.99;101940.53;5045253;28;20040;-83
2023/07/10 07:41:41;;;;;;;4.75;2.70;;;;;;;30.01;39.27;101953.91;5034350;28;20018;-83
2023/07/10 07:44:09;;;;;;;6.72;2.40;;;;;;;29.64;42.90;101942.53;5023544;28;20063;-83
2023/07/10 07:46:35;;;;;;;4.78;2.00;;;;;;;30.74;36.34;101948.72;5032555;28;20022;-83
2023/07/10 07:49:00;;;;;;;3.97;1.90;;;;;;;29.99;38.21;101947.84;5029747;28;20028;-83
2023/07/10 07:51:36;;;;;;;5.07;1.60;;;;;;;30.52;36.25;101941.88;5031225;28;20429;-82
2023/07/10 07:54:08;;;;;;;4.60;1.92;;;;;;;30.82;36.38;101947.19;5031819;28;20074;-82
2023/07/10 07:56:33;;;;;;;4.82;1.90;;;;;;;30.33;35.59;101947.53;5005987;28;20043;-81
2023/07/10 07:58:58;;;;;;;3.88;1.95;;;;;;;30.68;36.18;101945.25;5030443;28;20021;-81
2023/07/10 08:01:24;;;;;;;6.20;2.20;;;;;;;30.28;37.44;101947.63;5032157;28;20074;-81
2023/07/10 08:03:49;;;;;;;4.45;1.98;;;;;;;28.26;41.72;101938.34;5030188;28;20022;-82
2023/07/10 08:06:15;;;;;;;7.88;1.92;;;;;;;28.03;41.47;101942.66;5030782;28;20502;-81
2023/07/10 08:08:40;;;;;;;3.80;1.80;;;;;;;29.81;36.77;101939.22;5031064;28;20025;-81
2023/07/10 08:11:06;;;;;;;4.47;1.73;;;;;;;30.10;35.20;101936.25;5031150;28;20464;-81
2023/07/10 08:13:31;;;;;;;5.45;1.95;;;;;;;28.47;39.35;101938.94;5029855;28;20032;-81
2023/07/10 08:15:57;;;;;;;4.85;1.80;;;;;;;29.59;37.11;101940.66;5031183;28;20021;-81
2023/07/10 08:18:22;;;;;;;5.35;1.90;;;;;;;28.93;36.71;101932.09;5030845;28;20034;-81
2023/07/10 08:20:47;;;;;;;3.78;1.83;;;;;;;30.29;34.43;101934.53;5030034;28;20029;-81
2023/07/10 08:23:13;;;;;;;4.47;1.88;;;;;;;29.95;36.05;101936.50;5029904;28;20030;-81
2023/07/10 08:25:38;;;;;;;5.95;1.60;;;;;;;29.55;34.34;101939.63;5030338;28;20025;-81
2023/07/10 08:28:03;;;;;;;4.50;1.70;;;;;;;29.34;35.68;101939.88;5029259;28;20022;-81
2023/07/10 08:30:29;;;;;;;5.82;2.00;;;;;;;30.67;33.81;101946.38;5029851;28;20026;-81
2023/07/10 08:32:54;;;;;;;5.80;1.90;;;;;;;30.64;32.87;101941.41;5030763;28;20021;-81
2023/07/10 08:35:21;;;;;;;3.88;1.70;;;;;;;32.54;30.52;101947.66;5030158;28;20029;-81
2023/07/10 08:37:47;;;;;;;4.93;1.90;;;;;;;31.39;33.28;101934.88;5029791;28;20400;-82
2023/07/10 08:40:21;;;;;;;4.55;1.75;;;;;;;32.43;31.17;101931.22;5030920;28;20021;-81
2023/07/10 08:42:46;;;;;;;6.43;1.77;;;;;;;30.66;34.84;101929.97;4995840;28;20404;-81
2023/07/10 08:45:18;;;;;;;2.85;1.55;;;;;;;29.91;36.81;101924.34;5029542;28;20029;-82
2023/07/10 08:47:46;;;;;;;4.05;1.80;;;;;;;30.19;36.42;101927.22;4996640;28;20082;-81
2023/07/10 08:50:20;;;;;;;5.05;1.83;;;;;;;31.47;32.25;101931.34;4996893;28;20029;-82
2023/07/10 08:52:58;;;;;;;4.90;1.60;;;;;;;31.42;32.08;101914.75;4996483;28;20040;-82
2023/07/10 08:55:43;;;;;;;4.88;1.58;;;;;;;31.70;32.72;101921.06;5021756;28;20133;-82
2023/07/10 08:58:18;;;;;;;4.10;1.80;;;;;;;30.86;33.37;101917.63;5026683;28;20037;-82
2023/07/10 09:00:47;;;;;;;;;;;;;;;30.16;34.10;101911.19;5012464;28;20037;-81
2023/07/10 09:03:30;;;;;;;5.65;1.73;;;;;;;30.94;33.42;101914.13;5027386;28;19928;-81
2023/07/10 09:05:57;;;;;;;4.55;2.25;;;;;;;29.20;35.00;101920.38;5029353;28;20069;-81
2023/07/10 09:08:24;;;;;;;3.85;1.60;;;;;;;29.44;34.79;101911.19;5005168;28;20053;-81
2023/07/10 09:10:56;;;;;;;4.45;1.88;;;;;;;29.55;35.24;101922.13;5008010;28;20029;-81
2023/07/10 09:13:49;;;;;;;6.00;1.85;;;;;;;30.22;34.20;101918.28;4989173;28;20049;-81
2023/07/10 09:16:21;;;;;;;3.75;1.90;;;;;;;30.35;34.02;101925.81;4997571;28;20021;-80
2023/07/10 09:18:54;;;;;;;3.78;1.70;;;;;;;30.57;32.29;101924.31;5027260;28;20034;-81
2023/07/10 09:21:27;;;;;;;3.15;1.40;;;;;;;29.37;34.45;101919.06;5010507;28;20070;-81
2023/07/10 09:23:52;;;;;;;5.53;1.70;;;;;;;30.65;31.87;101928.31;5029076;28;20112;-81
2023/07/10 09:26:19;;;;;;;4.43;1.80;;;;;;;29.93;33.12;101919.31;5010082;28;20372;-81
2023/07/10 09:29:03;;;;;;;4.57;1.40;;;;;;;30.88;31.34;101914.53;5028079;28;20033;-81
2023/07/10 09:32:06;;;;;;;5.43;1.60;;;;;;;30.29;33.07;101923.44;5012116;28;20034;-80
2023/07/10 09:34:33;;;;;;;4.82;1.80;;;;;;;31.55;31.27;101925.03;5026633;28;20053;-81
2023/07/10 09:36:58;;;;;;;6.75;1.70;;;;;;;31.74;30.93;101912.94;5029937;28;20025;-81
2023/07/10 09:39:27;;;;;;;6.45;2.00;;;;;;;30.65;32.34;101920.00;5029636;28;20055;-81
2023/07/10 09:41:53;;;;;;;6.50;2.05;;;;;;;30.16;33.11;101914.78;5028363;28;20036;-81
2023/07/10 09:44:19;;;;;;;2.90;1.58;;;;;;;30.29;32.85;101917.88;5011977;28;20049;-81
2023/07/10 09:46:44;;;;;;;6.15;2.00;;;;;;;29.96;33.01;101915.97;5047480;23;20418;-81
2023/07/10 09:49:18;;;;;;;5.25;1.90;;;;;;;29.27;35.19;101924.75;5092416;28;20023;-81
2023/07/10 09:52:00;;;;;;;5.93;2.00;;;;;;;28.09;36.68;101922.09;5093104;28;20040;-81
2023/07/10 09:54:34;;;;;;;5.95;1.67;;;;;;;29.06;35.72;101927.78;5110607;28;20031;-81
2023/07/10 09:57:00;;;;;;;6.15;1.80;;;;;;;30.10;33.55;101914.03;5093022;28;20055;-81
2023/07/10 09:59:30;;;;;;;5.68;1.70;;;;;;;31.09;30.74;101920.47;5069036;28;20067;-81
2023/07/10 10:01:55;;;;;;;4.93;1.60;;;;;;;31.03;31.59;101914.19;5110664;28;20024;-80
2023/07/10 10:04:24;;;;;;;5.60;1.92;;;;;;;30.30;33.04;101920.34;5112027;28;20026;-80
2023/07/10 10:07:03;;;;;;;4.20;2.15;;;;;;;30.60;33.19;101920.94;5093557;28;20012;-81
2023/07/10 10:09:29;;;;;;;5.68;1.95;;;;;;;30.56;33.78;101922.66;5110485;28;20029;-80
2023/07/10 10:12:04;;;;;;;5.07;1.88;;;;;;;29.39;35.26;101918.78;5098981;28;20050;-80
2023/07/10 10:14:42;;;;;;;7.35;2.30;;;;;;;29.84;34.77;101912.78;5091653;28;20019;-80
2023/07/10 10:17:10;;;;;;;6.00;1.80;;;;;;;30.65;34.05;101912.50;5110649;28;20031;-80
2023/07/10 10:19:37;;;;;;;4.82;2.05;;;;;;;30.43;33.46;101906.78;5075641;28;20048;-81
2023/07/10 10:22:13;;;;;;;6.82;2.00;;;;;;;31.42;33.81;101911.97;5093239;28;20066;-81
2023/07/10 10:24:38;;;;;;;6.30;2.10;;;;;;;30.62;33.24;101902.00;5092353;28;20028;-81
2023/07/10 10:27:12;;;;;;;5.43;1.90;;;;;;;29.83;34.34;101905.63;5092368;28;20479;-81
2023/07/10 10:29:52;;;;;;;4.95;2.10;;;;;;;28.98;36.63;101909.84;5109065;28;20035;-81
2023/07/10 10:32:27;;;;;;;6.20;2.03;;;;;;;29.89;34.41;101909.94;5107127;28;20049;-81
2023/07/10 10:34:55;;;;;;;4.38;1.83;;;;;;;30.11;34.55;101909.31;5114165;28;20152;-81
2023/07/10 10:37:39;;;;;;;4.80;1.92;;;;;;;30.47;34.60;101918.94;5110993;28;20082;-81
2023/07/10 10:40:32;;;;;;;3.40;1.63;;;;;;;32.25;30.61;101923.88;5131116;28;20031;-81
2023/07/10 10:43:25;;;;;;;5.15;1.90;;;;;;;31.56;31.49;101926.69;5102020;28;20039;-82
2023/07/10 10:46:09;;;;;;;4.72;1.80;;;;;;;30.89;33.63;101919.78;5112034;28;20391;-81
2023/07/10 10:48:43;;;;;;;7.20;1.75;;;;;;;31.79;32.35;101923.91;5092459;28;20446;-82
2023/07/10 10:51:39;;;;;;;4.82;2.03;;;;;;;31.01;33.54;101916.47;5098383;28;20445;-82
2023/07/10 10:54:20;;;;;;;4.95;1.85;;;;;;;31.52;33.69;101925.66;5097813;28;20044;-82
2023/07/10 10:56:48;;;;;;;4.90;1.88;;;;;;;30.27;36.35;101920.16;5082500;28;20391;-82
2023/07/10 10:59:22;;;;;;;7.40;2.00;;;;;;;31.95;32.94;101926.34;5085747;28;20051;-82
2023/07/10 11:01:48;;;;;;;6.80;1.83;;;;;;;32.58;32.21;101927.16;5104419;28;20057;-82
2023/07/10 11:04:20;;;;;;;5.22;1.80;;;;;;;32.52;30.82;101934.03;5103753;28;20068;-81
2023/07/10 11:06:53;;;;;;;4.68;2.20;;;;;;;29.76;35.04;101933.72;5084079;28;20032;-82
2023/07/10 11:09:29;;;;;;;3.65;1.50;;;;;;;29.87;34.51;101940.78;5095493;28;20278;-82
2023/07/10 11:11:54;;;;;;;4.03;1.65;;;;;;;30.34;32.41;101937.22;5091599;28;20028;-81
2023/07/10 11:14:19;;;;;;;6.32;1.90;;;;;;;29.82;34.07;101932.53;5076040;28;20348;-82
2023/07/10 11:16:45;;;;;;;8.98;2.40;;;;;;;29.42;34.96;101924.53;5071225;28;20422;-82
2023/07/10 11:19:15;;;;;;;7.13;1.85;;;;;;;29.97;34.44;101912.06;5074104;28;20485;-81
2023/07/10 11:21:40;;;;;;;8.93;2.00;;;;;;;30.06;33.95;101918.56;5091756;28;20031;-82
2023/07/10 11:24:14;;;;;;;8.38;1.85;;;;;;;30.53;33.10;101918.53;5107251;28;20030;-81